Loraine, Texas
Current Conditions -  °F | °C
As of 10:35 PM on Wednesday 22 Oct 2014 (Local Time) from KSWW Reporting Station
Clear Clear  
Wind Chill: 61°   Ceiling: Unl
Heat Index: 61°   Visibility: 10mi
Dew Point: 57°   Wind: 6mph
Humidity: 86%   Direction: 160°SSE
Pressure: 30.16"   Gusts: NA
Location:  32.41°N, 100.71°W
Report Text: KSWW 230335Z AUTO 16005KT 10SM CLR 16/14 A3016 RMK AO2 T01600137
Loading
Personal Weather Stations






























Interactive Weather Map
Tropical Storm Tracking
New forecast layout! Learn more

10-Day Weather Forecast

Advertisements
Track Severe Weather on mobile